Time;durP1;ratioP1;P1;durP2;ratioP2;P2;SDS_P1;SDS_P2;PMS_P1;PMS_P2;Temp;Humidity;BMP_temperature;BMP_pressure;BME280_temperature;BME280_humidity;BME280_pressure;Samples;Min_cycle;Max_cycle;Signal;HPM_P1;HPM_P2
2021/03/08 00:01:05;;;;;;;59.25;27.95;;;3.60;99.90;;;;;;5096410;28;20518;-68
2021/03/08 00:03:31;;;;;;;57.78;28.75;;;3.60;99.90;;;;;;5077754;28;20063;-68
2021/03/08 00:05:56;;;;;;;61.60;28.65;;;3.70;99.90;;;;;;5096328;28;20058;-68
2021/03/08 00:08:22;;;;;;;65.60;27.95;;;3.70;99.90;;;;;;5094406;28;20063;-68
2021/03/08 00:10:47;;;;;;;60.22;28.13;;;3.60;99.90;;;;;;5094793;28;20043;-68
2021/03/08 00:13:13;;;;;;;62.65;28.73;;;3.50;99.90;;;;;;5095905;28;20081;-68
2021/03/08 00:15:38;;;;;;;63.45;29.60;;;3.50;99.90;;;;;;5095844;28;20077;-68
2021/03/08 00:18:04;;;;;;;63.42;28.80;;;3.50;99.90;;;;;;5095760;28;20093;-68
2021/03/08 00:20:30;;;;;;;67.38;29.30;;;3.50;99.90;;;;;;5096058;28;20020;-68
2021/03/08 00:22:57;;;;;;;66.43;30.20;;;3.60;99.90;;;;;;5094587;28;20429;-68
2021/03/08 00:25:25;;;;;;;66.00;27.83;;;3.70;99.90;;;;;;5094151;28;20077;-68
2021/03/08 00:27:51;;;;;;;65.65;30.02;;;3.60;99.90;;;;;;5094039;28;20031;-68
2021/03/08 00:30:17;;;;;;;63.63;28.85;;;3.60;99.90;;;;;;5094293;28;20032;-68
2021/03/08 00:32:43;;;;;;;72.60;30.08;;;3.60;99.90;;;;;;5095225;28;20024;-68
2021/03/08 00:35:10;;;;;;;66.05;30.50;;;3.60;99.90;;;;;;5095753;28;20030;-68
2021/03/08 00:37:36;;;;;;;69.97;30.67;;;3.60;99.90;;;;;;5094280;28;20370;-68
2021/03/08 00:40:04;;;;;;;67.00;28.60;;;3.60;99.90;;;;;;5095639;28;20020;-68
2021/03/08 00:42:30;;;;;;;67.20;30.02;;;3.60;99.90;;;;;;5095607;28;20062;-68
2021/03/08 00:44:56;;;;;;;64.10;30.05;;;3.60;99.90;;;;;;5095027;28;20041;-68
2021/03/08 00:47:23;;;;;;;71.47;31.33;;;3.60;99.90;;;;;;5095459;28;20021;-68
2021/03/08 00:49:49;;;;;;;70.35;29.65;;;3.60;99.90;;;;;;5095138;28;20103;-68
2021/03/08 00:52:15;;;;;;;65.00;28.50;;;3.60;99.90;;;;;;5094252;28;20020;-69
2021/03/08 00:54:40;;;;;;;66.32;28.73;;;3.60;99.90;;;;;;5094792;28;20024;-68
2021/03/08 00:57:06;;;;;;;65.25;29.98;;;3.60;99.90;;;;;;5095347;28;20024;-68
2021/03/08 00:59:32;;;;;;;66.38;29.35;;;3.60;99.90;;;;;;5095263;28;20525;-68
2021/03/08 01:01:57;;;;;;;59.42;27.38;;;3.50;99.90;;;;;;5094921;28;20123;-68
2021/03/08 01:04:23;;;;;;;63.35;28.65;;;3.50;99.90;;;;;;5095145;28;20423;-68
2021/03/08 01:06:49;;;;;;;65.47;28.98;;;3.60;99.90;;;;;;5093946;28;20027;-68
2021/03/08 01:09:14;;;;;;;62.03;29.95;;;3.50;99.90;;;;;;5094285;28;20481;-68
2021/03/08 01:11:42;;;;;;;65.85;30.15;;;3.60;99.90;;;;;;5095019;28;20031;-68
2021/03/08 01:14:07;;;;;;;68.80;29.35;;;3.50;99.90;;;;;;5094735;28;20016;-68
2021/03/08 01:16:33;;;;;;;68.45;30.20;;;3.50;99.90;;;;;;5094934;28;20027;-68
2021/03/08 01:18:58;;;;;;;63.75;29.45;;;3.50;99.90;;;;;;5094612;28;20059;-68
2021/03/08 01:21:24;;;;;;;65.72;29.65;;;3.50;99.90;;;;;;5094841;28;20031;-68
2021/03/08 01:23:49;;;;;;;62.25;30.88;;;3.60;99.90;;;;;;5094562;28;20047;-68
2021/03/08 01:26:15;;;;;;;65.78;31.05;;;3.60;99.90;;;;;;5094508;28;20081;-68
2021/03/08 01:28:40;;;;;;;64.38;29.08;;;3.50;99.90;;;;;;5094099;28;20039;-68
2021/03/08 01:31:06;;;;;;;65.18;29.77;;;3.50;99.90;;;;;;5094152;28;20020;-68
2021/03/08 01:33:31;;;;;;;61.63;29.90;;;3.60;99.90;;;;;;5094658;28;20427;-68
2021/03/08 01:35:57;;;;;;;67.72;30.77;;;3.50;99.90;;;;;;5094626;28;20364;-68
2021/03/08 01:38:22;;;;;;;62.50;29.60;;;3.50;99.90;;;;;;5092695;28;20047;-68
2021/03/08 01:40:48;;;;;;;71.25;30.90;;;3.50;99.90;;;;;;5094270;28;20376;-68
2021/03/08 01:43:14;;;;;;;65.75;30.02;;;3.50;99.90;;;;;;5094516;28;20516;-68
2021/03/08 01:45:40;;;;;;;61.17;28.30;;;3.50;99.90;;;;;;5093909;28;20024;-68
2021/03/08 01:48:06;;;;;;;63.08;28.42;;;3.50;99.90;;;;;;5094037;28;20376;-68
2021/03/08 01:50:39;;;;;;;69.28;29.77;;;3.50;99.90;;;;;;5094375;28;20555;-68
2021/03/08 01:53:07;;;;;;;;;;;3.40;99.90;;;;;;5094838;28;20020;-68
2021/03/08 01:55:33;;;;;;;62.35;29.13;;;3.40;99.90;;;;;;5094321;28;20000;-69
2021/03/08 01:57:59;;;;;;;68.35;30.30;;;3.40;99.90;;;;;;5094017;28;20035;-68
2021/03/08 02:00:27;;;;;;;69.90;31.35;;;3.30;99.90;;;;;;5094265;28;20016;-68
2021/03/08 02:02:54;;;;;;;66.32;30.30;;;3.30;99.90;;;;;;5093988;28;20026;-68
2021/03/08 02:05:23;;;;;;;66.55;30.35;;;3.30;99.90;;;;;;5093934;28;20016;-68
2021/03/08 02:07:50;;;;;;;70.18;30.80;;;3.20;99.90;;;;;;5094044;28;20040;-68
2021/03/08 02:10:16;;;;;;;66.22;30.77;;;3.30;99.90;;;;;;5094067;28;20031;-68
2021/03/08 02:16:05;;;;;;;68.03;29.02;;;3.30;99.90;;;;;;5112183;27;20351;-68
2021/03/08 02:19:01;;;;;;;63.25;29.30;;;3.30;99.90;;;;;;5111761;28;20048;-68
2021/03/08 02:22:06;;;;;;;68.75;30.05;;;3.30;99.90;;;;;;5111597;28;20015;-68
2021/03/08 02:25:08;;;;;;;65.80;29.77;;;3.30;99.90;;;;;;5111166;28;20037;-68
2021/03/08 02:30:49;;;;;;;67.10;31.27;;;3.40;99.90;;;;;;5111935;27;20351;-68
2021/03/08 02:33:22;;;;;;;64.00;29.27;;;3.30;99.90;;;;;;5111276;28;20050;-68
2021/03/08 02:35:52;;;;;;;65.53;30.65;;;3.30;99.90;;;;;;5110712;28;20369;-68
2021/03/08 02:38:23;;;;;;;64.22;31.13;;;3.30;99.90;;;;;;5111754;28;20376;-68
2021/03/08 02:41:01;;;;;;;62.13;30.02;;;3.30;99.90;;;;;;5111528;28;20051;-68
2021/03/08 02:43:35;;;;;;;69.88;28.73;;;3.30;99.90;;;;;;5111675;28;20073;-68
2021/03/08 02:46:06;;;;;;;64.38;30.65;;;3.30;99.90;;;;;;5111658;28;20078;-69
2021/03/08 02:48:34;;;;;;;63.75;29.50;;;3.30;99.90;;;;;;5111532;28;20050;-68
2021/03/08 02:51:03;;;;;;;67.50;31.50;;;3.20;99.90;;;;;;5111050;28;20031;-68
2021/03/08 02:53:32;;;;;;;68.38;30.30;;;3.30;99.90;;;;;;5111503;28;20020;-69
2021/03/08 02:56:04;;;;;;;67.57;30.08;;;3.30;99.90;;;;;;5111445;28;20031;-69
2021/03/08 02:58:32;;;;;;;65.00;29.83;;;3.30;99.90;;;;;;5111428;28;20020;-69
2021/03/08 03:01:03;;;;;;;76.03;31.63;;;3.30;99.90;;;;;;5111116;28;20020;-68
2021/03/08 03:03:31;;;;;;;67.60;30.92;;;3.30;99.90;;;;;;5111347;28;20016;-68
2021/03/08 03:05:58;;;;;;;64.85;30.05;;;3.30;99.90;;;;;;5111256;28;20479;-68
2021/03/08 03:08:27;;;;;;;72.50;32.05;;;3.30;99.90;;;;;;5111122;28;20020;-68
2021/03/08 03:10:54;;;;;;;64.72;30.55;;;3.40;99.90;;;;;;5110177;28;20027;-68
2021/03/08 03:13:21;;;;;;;66.32;29.63;;;3.30;99.90;;;;;;5109262;28;20514;-68
2021/03/08 03:15:48;;;;;;;71.32;30.67;;;3.30;99.90;;;;;;5109360;28;20161;-68
2021/03/08 03:18:16;;;;;;;68.97;30.50;;;3.20;99.90;;;;;;5110986;28;20477;-68
2021/03/08 03:20:44;;;;;;;68.70;31.50;;;3.30;99.90;;;;;;5110968;28;20034;-68
2021/03/08 03:23:11;;;;;;;69.50;31.75;;;3.30;99.90;;;;;;5110945;28;20047;-68
2021/03/08 03:25:38;;;;;;;70.35;31.27;;;3.30;99.90;;;;;;5110647;28;20020;-68
2021/03/08 03:28:04;;;;;;;69.40;30.85;;;3.30;99.90;;;;;;5110529;28;20026;-69
2021/03/08 03:30:31;;;;;;;70.90;31.27;;;3.40;99.90;;;;;;5108981;28;20133;-68
2021/03/08 03:32:58;;;;;;;79.15;33.67;;;3.30;99.90;;;;;;5110210;28;20484;-68
2021/03/08 03:35:27;;;;;;;74.45;32.83;;;3.30;99.90;;;;;;5110692;28;20070;-68
2021/03/08 03:37:55;;;;;;;72.65;32.47;;;3.30;99.90;;;;;;5110655;28;20042;-68
2021/03/08 03:40:21;;;;;;;70.57;32.45;;;3.30;99.90;;;;;;5104235;28;20085;-68
2021/03/08 03:42:49;;;;;;;67.47;32.63;;;3.30;99.90;;;;;;5097033;28;20020;-68
2021/03/08 03:45:17;;;;;;;74.25;32.20;;;3.30;99.90;;;;;;5096697;28;20448;-68
2021/03/08 03:47:43;;;;;;;72.38;34.25;;;3.30;99.90;;;;;;5096911;28;20449;-68
2021/03/08 03:50:11;;;;;;;69.22;32.88;;;3.30;99.90;;;;;;5095333;28;20039;-68
2021/03/08 03:52:37;;;;;;;73.28;33.13;;;3.30;99.90;;;;;;5096493;28;20377;-68
2021/03/08 03:55:06;;;;;;;75.50;33.45;;;3.30;99.90;;;;;;5096735;28;20024;-68
2021/03/08 04:00:54;;;;;;;73.22;33.50;;;3.30;99.90;;;;;;5112269;27;20115;-68
2021/03/08 04:03:26;;;;;;;74.18;32.50;;;3.40;99.90;;;;;;5111926;28;20051;-68
2021/03/08 04:05:53;;;;;;;69.05;31.88;;;3.40;99.90;;;;;;5110375;28;20430;-68
2021/03/08 04:08:23;;;;;;;68.85;32.40;;;3.40;99.90;;;;;;5110259;28;20016;-68
2021/03/08 04:10:51;;;;;;;73.82;33.35;;;3.50;99.90;;;;;;5111230;28;20024;-69
2021/03/08 04:13:17;;;;;;;73.25;33.05;;;3.50;99.90;;;;;;5109934;28;20015;-68
2021/03/08 04:15:43;;;;;;;64.22;30.75;;;3.50;99.90;;;;;;5093154;28;20373;-68
2021/03/08 04:18:12;;;;;;;69.90;32.55;;;3.50;99.90;;;;;;5111324;28;20046;-68
2021/03/08 04:20:39;;;;;;;69.22;31.77;;;3.50;99.90;;;;;;5111548;28;20073;-68
2021/03/08 04:23:07;;;;;;;65.45;30.77;;;3.60;99.90;;;;;;5111540;28;20075;-68
2021/03/08 04:25:34;;;;;;;71.43;30.33;;;3.50;99.90;;;;;;5111465;28;20084;-68
2021/03/08 04:28:04;;;;;;;70.90;32.72;;;3.50;99.90;;;;;;5111417;28;20035;-68
2021/03/08 04:30:31;;;;;;;77.57;32.42;;;3.60;99.90;;;;;;5111372;28;20076;-68
2021/03/08 04:32:57;;;;;;;73.72;33.88;;;3.50;99.90;;;;;;5111349;28;20480;-68
2021/03/08 04:35:26;;;;;;;75.40;33.75;;;3.50;99.90;;;;;;5111303;28;20020;-69
2021/03/08 04:37:52;;;;;;;78.25;33.33;;;3.40;99.90;;;;;;5110925;28;20034;-68
2021/03/08 04:40:19;;;;;;;83.97;34.33;;;3.40;99.90;;;;;;5111177;28;20376;-68
2021/03/08 04:42:45;;;;;;;79.65;35.40;;;3.40;99.90;;;;;;5111097;28;20027;-68
2021/03/08 04:45:12;;;;;;;85.43;35.45;;;3.20;99.90;;;;;;5110820;28;20035;-68
2021/03/08 04:47:40;;;;;;;81.50;36.17;;;3.20;99.90;;;;;;5110820;28;20012;-68
2021/03/08 04:50:08;;;;;;;79.55;34.60;;;3.10;99.90;;;;;;5110466;28;20043;-68
2021/03/08 04:52:35;;;;;;;79.72;34.15;;;3.10;99.90;;;;;;5110961;28;20020;-68
2021/03/08 04:55:02;;;;;;;88.55;37.40;;;3.00;99.90;;;;;;5110881;28;20470;-68
2021/03/08 04:57:29;;;;;;;88.20;38.00;;;3.00;99.90;;;;;;5109335;28;20067;-68
2021/03/08 04:59:54;;;;;;;92.32;37.65;;;2.90;99.90;;;;;;5109997;28;20042;-68
2021/03/08 05:02:21;;;;;;;85.63;37.10;;;2.90;99.90;;;;;;5110523;28;20028;-68
2021/03/08 05:04:51;;;;;;;95.05;38.83;;;2.90;99.90;;;;;;5110479;28;20016;-68
2021/03/08 05:07:21;;;;;;;91.60;37.53;;;2.80;99.90;;;;;;5109096;28;20487;-68
2021/03/08 05:09:48;;;;;;;96.20;37.40;;;2.80;99.90;;;;;;5109947;28;20157;-68
2021/03/08 05:12:14;;;;;;;95.90;38.53;;;2.80;99.90;;;;;;5096524;28;20016;-68
2021/03/08 05:14:41;;;;;;;90.93;38.70;;;2.70;99.90;;;;;;5096968;28;20480;-68
2021/03/08 05:17:08;;;;;;;93.13;39.30;;;2.70;99.90;;;;;;5096622;28;20527;-68
2021/03/08 05:19:35;;;;;;;104.68;39.05;;;2.70;99.90;;;;;;5096203;28;20031;-68
2021/03/08 05:22:02;;;;;;;101.07;40.38;;;2.80;99.90;;;;;;5096786;28;20103;-68
2021/03/08 05:24:28;;;;;;;99.75;37.97;;;2.80;99.90;;;;;;5096732;28;20019;-68
2021/03/08 05:26:55;;;;;;;96.82;39.33;;;2.80;99.90;;;;;;5095725;28;20067;-68
2021/03/08 05:29:21;;;;;;;97.75;39.35;;;2.80;99.90;;;;;;5096607;28;20035;-68
2021/03/08 05:31:48;;;;;;;96.20;38.95;;;2.70;99.90;;;;;;5095553;28;20024;-68
2021/03/08 05:34:17;;;;;;;91.70;37.67;;;2.80;99.90;;;;;;5094717;28;20119;-68
2021/03/08 05:36:47;;;;;;;101.18;38.92;;;2.80;99.90;;;;;;5094687;28;20027;-68
2021/03/08 05:39:13;;;;;;;102.93;42.25;;;2.80;99.90;;;;;;5096369;28;20032;-68
2021/03/08 05:41:57;;;;;;;100.10;41.30;;;2.70;99.90;;;;;;5096404;28;20448;-68
2021/03/08 05:44:28;;;;;;;103.28;42.20;;;2.70;99.90;;;;;;5096293;28;20020;-68
2021/03/08 05:50:01;;;;;;;108.93;40.95;;;2.70;99.90;;;;;;5112210;27;20396;-68
2021/03/08 05:53:00;;;;;;;102.78;40.85;;;2.70;99.90;;;;;;5111177;28;20426;-68
2021/03/08 05:55:56;;;;;;;102.28;41.15;;;2.70;99.90;;;;;;5111284;28;20448;-69
2021/03/08 05:59:02;;;;;;;93.03;38.80;;;2.70;99.90;;;;;;5109934;28;20443;-69
2021/03/08 06:01:50;;;;;;;106.35;42.28;;;2.80;99.90;;;;;;5110943;28;20044;-68
2021/03/08 06:04:32;;;;;;;104.72;41.35;;;2.80;99.90;;;;;;5111654;28;20023;-68
2021/03/08 06:07:30;;;;;;;101.28;41.20;;;2.80;99.90;;;;;;5111339;28;20106;-68
2021/03/08 06:10:06;;;;;;;105.22;40.45;;;2.80;99.90;;;;;;5110876;28;20046;-68
2021/03/08 06:12:35;;;;;;;112.13;43.67;;;2.80;99.90;;;;;;5111490;28;20020;-68
2021/03/08 06:15:08;;;;;;;108.63;43.30;;;2.70;99.90;;;;;;5111740;28;20061;-68
2021/03/08 06:17:35;;;;;;;;;;;2.70;99.90;;;;;;5111274;28;20016;-68
2021/03/08 06:20:02;;;;;;;101.22;41.67;;;2.70;99.90;;;;;;5110849;28;20018;-68
2021/03/08 06:22:29;;;;;;;110.53;43.08;;;2.70;99.90;;;;;;5110099;28;20445;-68
2021/03/08 06:24:55;;;;;;;112.88;45.55;;;2.70;99.90;;;;;;5111219;28;20047;-68
2021/03/08 06:27:22;;;;;;;113.03;45.47;;;2.70;99.90;;;;;;5092705;28;20020;-68
2021/03/08 06:29:48;;;;;;;118.35;46.58;;;2.70;99.90;;;;;;5110889;28;20407;-68
2021/03/08 06:32:14;;;;;;;114.20;45.95;;;2.80;99.90;;;;;;5110737;28;20027;-68
2021/03/08 06:34:40;;;;;;;114.45;43.80;;;2.80;99.90;;;;;;5110688;28;20012;-68
2021/03/08 06:37:08;;;;;;;115.85;43.97;;;2.80;99.90;;;;;;5110917;28;20024;-69
2021/03/08 06:39:35;;;;;;;118.88;45.70;;;2.80;99.90;;;;;;5110592;28;20034;-68
2021/03/08 06:42:02;;;;;;;120.68;48.08;;;2.80;99.90;;;;;;5110957;28;20051;-68
2021/03/08 06:44:29;;;;;;;112.43;44.88;;;2.80;99.90;;;;;;5110328;28;20023;-68
2021/03/08 06:46:55;;;;;;;126.18;46.05;;;2.90;99.90;;;;;;5110618;28;20106;-68
2021/03/08 06:49:21;;;;;;;123.60;47.95;;;2.90;99.90;;;;;;5108603;28;20040;-68
2021/03/08 06:52:07;;;;;;;128.80;50.40;;;2.90;99.90;;;;;;5109118;28;20024;-68
2021/03/08 06:54:35;;;;;;;122.18;45.33;;;2.90;99.90;;;;;;5110594;28;20400;-69
2021/03/08 06:57:00;;;;;;;120.22;46.72;;;3.00;99.90;;;;;;5110249;28;20421;-68
2021/03/08 06:59:26;;;;;;;131.30;47.97;;;3.00;99.90;;;;;;5103643;28;20100;-69
2021/03/08 07:01:53;;;;;;;127.38;47.15;;;2.90;99.90;;;;;;5096638;28;20024;-68
2021/03/08 07:04:22;;;;;;;130.52;48.13;;;3.00;99.90;;;;;;5096566;28;20020;-68
2021/03/08 07:07:05;;;;;;;126.57;48.15;;;3.00;99.90;;;;;;5096276;28;20035;-68
2021/03/08 07:09:32;;;;;;;131.23;47.05;;;3.10;99.90;;;;;;5096011;28;20144;-69
2021/03/08 07:12:10;;;;;;;126.00;47.53;;;3.10;99.90;;;;;;5093926;28;20124;-68
2021/03/08 07:14:37;;;;;;;139.45;50.15;;;3.20;99.90;;;;;;5096221;28;20024;-69
2021/03/08 07:17:22;;;;;;;137.68;50.38;;;3.20;99.90;;;;;;5096583;28;20023;-69
2021/03/08 07:20:09;;;;;;;134.98;51.22;;;3.20;99.90;;;;;;5095452;28;20048;-70
2021/03/08 07:22:38;;;;;;;126.60;48.53;;;3.20;99.90;;;;;;5075644;28;20025;-69
2021/03/08 07:25:06;;;;;;;134.30;51.00;;;3.20;99.90;;;;;;5090689;28;20024;-70
2021/03/08 07:27:57;;;;;;;142.23;51.28;;;3.20;99.90;;;;;;5090948;28;20465;-70
2021/03/08 07:30:26;;;;;;;142.00;50.72;;;3.20;99.90;;;;;;5069495;28;20120;-69
2021/03/08 07:32:57;;;;;;;146.90;50.67;;;3.30;99.90;;;;;;5084083;28;20028;-68
2021/03/08 07:35:52;;;;;;;158.77;53.50;;;3.30;99.90;;;;;;5093240;28;20077;-69
2021/03/08 07:38:35;;;;;;;150.10;52.60;;;3.30;99.90;;;;;;5092458;28;20020;-65
2021/03/08 07:41:19;;;;;;;159.77;53.72;;;3.30;99.90;;;;;;5092156;28;20032;-66
2021/03/08 07:43:47;;;;;;;160.85;54.35;;;3.30;99.90;;;;;;5089981;28;20491;-65
2021/03/08 07:46:34;;;;;;;153.77;51.17;;;3.40;99.90;;;;;;5093143;28;20040;-69
2021/03/08 07:49:01;;;;;;;162.45;54.78;;;3.40;99.90;;;;;;5092366;28;20044;-69
2021/03/08 07:51:44;;;;;;;154.32;51.67;;;3.40;99.90;;;;;;5076824;28;20115;-69
2021/03/08 07:54:10;;;;;;;161.25;55.92;;;3.40;99.90;;;;;;5093592;28;20028;-68
2021/03/08 07:56:35;;;;;;;170.10;56.50;;;3.40;99.90;;;;;;5094295;28;20111;-69
2021/03/08 07:59:02;;;;;;;163.18;57.67;;;3.40;99.90;;;;;;5076771;28;20461;-69
2021/03/08 08:01:54;;;;;;;167.10;57.85;;;3.40;99.90;;;;;;5093254;28;20036;-69
2021/03/08 08:04:19;;;;;;;167.85;56.47;;;3.40;99.90;;;;;;5093041;28;20124;-69
2021/03/08 08:06:46;;;;;;;163.82;59.00;;;3.50;99.90;;;;;;5094747;28;20047;-71
2021/03/08 08:09:11;;;;;;;169.50;57.50;;;3.50;99.90;;;;;;5093939;28;20027;-70
2021/03/08 08:11:37;;;;;;;165.98;55.70;;;3.50;99.90;;;;;;5092550;28;20032;-69
2021/03/08 08:14:04;;;;;;;158.60;53.65;;;3.50;99.90;;;;;;5093131;28;20048;-69
2021/03/08 08:16:32;;;;;;;172.02;55.63;;;3.50;99.90;;;;;;5092358;28;20518;-69
2021/03/08 08:19:08;;;;;;;177.00;58.55;;;3.50;99.90;;;;;;5075244;28;20072;-68
2021/03/08 08:21:42;;;;;;;170.82;57.17;;;3.60;99.90;;;;;;5093050;28;20020;-69
2021/03/08 08:24:17;;;;;;;169.13;55.92;;;3.60;99.90;;;;;;5072212;28;20445;-69
2021/03/08 08:26:43;;;;;;;171.93;55.88;;;3.60;99.90;;;;;;5052772;28;20052;-69
2021/03/08 08:29:09;;;;;;;167.77;54.95;;;3.60;99.90;;;;;;5090479;28;20039;-69
2021/03/08 08:32:00;;;;;;;169.65;57.53;;;3.70;99.90;;;;;;5093237;28;20020;-65
2021/03/08 08:34:32;;;;;;;154.75;54.38;;;3.80;99.90;;;;;;5092567;28;20035;-65
2021/03/08 08:37:09;;;;;;;152.35;51.08;;;3.90;99.90;;;;;;5094045;28;20020;-66
2021/03/08 08:39:35;;;;;;;149.68;52.38;;;3.90;99.90;;;;;;5092882;28;20036;-65
2021/03/08 08:42:13;;;;;;;134.90;51.72;;;3.90;99.90;;;;;;5075525;28;20100;-65
2021/03/08 08:44:39;;;;;;;146.68;52.47;;;3.90;99.90;;;;;;5092634;28;20031;-64
2021/03/08 08:47:28;;;;;;;139.93;51.78;;;4.00;99.90;;;;;;5093060;28;20042;-66
2021/03/08 08:49:58;;;;;;;145.93;48.70;;;4.00;99.90;;;;;;5075964;28;20024;-64
2021/03/08 08:52:50;;;;;;;139.82;50.63;;;3.90;99.90;;;;;;5093316;28;20032;-65
2021/03/08 08:55:17;;;;;;;134.77;48.97;;;3.90;99.90;;;;;;5093890;28;20030;-65
2021/03/08 08:58:18;;;;;;;134.35;49.13;;;4.00;99.90;;;;;;5091987;28;20036;-64
2021/03/08 09:03:53;;;;;;;139.95;50.25;;;4.00;99.90;;;;;;5110720;27;20363;-66
2021/03/08 09:06:40;;;;;;;147.90;54.20;;;4.10;99.90;;;;;;5108706;28;20484;-65
2021/03/08 09:09:06;;;;;;;146.48;50.10;;;4.10;99.90;;;;;;5109313;28;20035;-66
2021/03/08 09:11:56;;;;;;;144.90;53.13;;;4.10;99.90;;;;;;5110235;28;20028;-65
2021/03/08 09:14:46;;;;;;;121.07;44.65;;;4.20;99.90;;;;;;5109579;28;20020;-66
2021/03/08 09:17:25;;;;;;;128.35;46.33;;;4.30;99.90;;;;;;5090186;28;20020;-66
2021/03/08 09:22:50;;;;;;;120.60;45.92;;;4.30;99.90;;;;;;5110476;27;20123;-66
2021/03/08 09:25:23;;;;;;;123.93;46.53;;;4.30;99.90;;;;;;5110179;28;20020;-65
2021/03/08 09:27:59;;;;;;;128.38;48.20;;;4.30;99.90;;;;;;5110425;28;20024;-64
2021/03/08 09:30:27;;;;;;;119.70;45.30;;;4.40;99.90;;;;;;5110927;28;20068;-65
2021/03/08 09:32:58;;;;;;;116.82;45.40;;;4.40;99.90;;;;;;5110378;28;20024;-65
2021/03/08 09:35:27;;;;;;;107.97;42.75;;;4.50;99.90;;;;;;5110317;28;20031;-65
2021/03/08 09:37:55;;;;;;;115.07;47.13;;;4.60;99.90;;;;;;5108765;28;20020;-71
2021/03/08 09:40:25;;;;;;;91.43;38.60;;;4.70;99.90;;;;;;5110803;28;20032;-65
2021/03/08 09:42:51;;;;;;;91.38;36.60;;;4.90;99.90;;;;;;5109319;28;20023;-65
2021/03/08 09:45:23;;;;;;;81.18;34.35;;;4.90;99.90;;;;;;5110652;28;20020;-66
2021/03/08 09:47:51;;;;;;;68.15;32.33;;;5.00;99.90;;;;;;5092367;28;20388;-67
2021/03/08 09:50:23;;;;;;;76.70;33.13;;;4.90;99.90;;;;;;5108803;28;20077;-66
2021/03/08 09:52:48;;;;;;;78.93;32.80;;;4.90;99.90;;;;;;5108993;28;20022;-65
2021/03/08 09:55:20;;;;;;;78.68;33.35;;;5.10;99.90;;;;;;5109832;28;20016;-66
2021/03/08 09:57:46;;;;;;;76.70;33.70;;;5.10;99.90;;;;;;5108908;28;20156;-66
2021/03/08 10:00:44;;;;;;;79.40;34.53;;;5.00;99.90;;;;;;5109901;28;20049;-65
2021/03/08 10:03:11;;;;;;;81.22;35.85;;;5.00;99.90;;;;;;5109032;28;20122;-65
2021/03/08 10:05:44;;;;;;;83.03;34.33;;;5.10;99.90;;;;;;5109952;28;20094;-66
2021/03/08 10:08:11;;;;;;;78.10;33.87;;;5.20;99.90;;;;;;5108839;28;20027;-65
2021/03/08 10:10:40;;;;;;;81.00;34.80;;;5.10;99.90;;;;;;5109946;28;20270;-67
2021/03/08 10:13:05;;;;;;;74.97;32.30;;;5.00;99.90;;;;;;5109323;28;20026;-65
2021/03/08 10:16:00;;;;;;;73.63;31.70;;;5.10;99.90;;;;;;5110329;28;20102;-65
2021/03/08 10:18:31;;;;;;;68.95;31.50;;;5.10;99.90;;;;;;5108397;28;20031;-65
2021/03/08 10:20:59;;;;;;;70.55;31.45;;;5.10;99.90;;;;;;5109047;28;20044;-66
2021/03/08 10:23:28;;;;;;;71.00;32.08;;;5.30;99.90;;;;;;5091584;28;20373;-66
2021/03/08 10:26:03;;;;;;;73.45;33.17;;;5.40;99.90;;;;;;5108139;28;20016;-66
2021/03/08 10:28:37;;;;;;;74.13;32.42;;;5.30;99.90;;;;;;5109491;28;20023;-66
2021/03/08 10:31:04;;;;;;;72.32;32.53;;;5.30;99.90;;;;;;5109401;28;20016;-66
2021/03/08 10:33:31;;;;;;;73.95;32.45;;;5.10;99.90;;;;;;5098137;28;20174;-65
2021/03/08 10:35:57;;;;;;;74.45;31.75;;;5.10;99.90;;;;;;5096245;28;20027;-66
2021/03/08 10:38:31;;;;;;;72.75;33.45;;;5.10;99.90;;;;;;5095425;28;20024;-65
2021/03/08 10:40:59;;;;;;;67.97;30.55;;;5.20;99.90;;;;;;5096017;28;20144;-65
2021/03/08 10:43:26;;;;;;;73.28;30.73;;;5.20;99.90;;;;;;5095582;28;20020;-65
2021/03/08 10:45:53;;;;;;;75.10;34.55;;;5.10;99.90;;;;;;5094711;28;20075;-66
2021/03/08 10:48:19;;;;;;;68.57;30.00;;;5.10;99.90;;;;;;5094304;28;20028;-66
2021/03/08 10:50:47;;;;;;;76.22;30.85;;;5.10;99.90;;;;;;5094297;28;20032;-66
2021/03/08 10:53:14;;;;;;;71.07;31.75;;;5.20;99.90;;;;;;5095300;28;20056;-67
2021/03/08 10:55:40;;;;;;;64.30;28.83;;;5.20;99.90;;;;;;5095998;28;20031;-65
2021/03/08 10:58:06;;;;;;;60.88;28.33;;;5.20;99.90;;;;;;5094217;28;20114;-66
2021/03/08 11:00:33;;;;;;;64.68;27.10;;;5.30;99.90;;;;;;5093871;28;20035;-65
2021/03/08 11:03:00;;;;;;;62.28;29.27;;;5.30;99.90;;;;;;5095533;28;20043;-66
2021/03/08 11:05:27;;;;;;;67.78;29.30;;;5.20;99.90;;;;;;5093713;28;20461;-66
2021/03/08 11:07:52;;;;;;;61.97;27.45;;;5.20;99.90;;;;;;5095510;28;20025;-65
2021/03/08 11:10:31;;;;;;;64.15;27.08;;;5.30;99.90;;;;;;5095144;28;20354;-65
2021/03/08 11:13:00;;;;;;;74.65;32.47;;;5.20;99.90;;;;;;5095130;28;20020;-64
2021/03/08 11:15:30;;;;;;;66.30;27.13;;;5.10;99.90;;;;;;5094662;28;20024;-65
2021/03/08 11:17:56;;;;;;;62.53;27.70;;;5.00;99.90;;;;;;5095087;28;20024;-64
2021/03/08 11:20:25;;;;;;;57.55;25.15;;;5.00;99.90;;;;;;5094405;28;20385;-65
2021/03/08 11:23:01;;;;;;;60.90;26.45;;;5.00;99.90;;;;;;5094925;28;20500;-64
2021/03/08 11:28:10;;;;;;;57.67;26.33;;;5.10;99.90;;;;;;5110262;27;20416;-64
2021/03/08 11:30:36;;;;;;;55.60;25.52;;;5.40;99.90;;;;;;5106460;28;20142;-70
2021/03/08 11:33:07;;;;;;;54.70;25.85;;;5.30;99.90;;;;;;5091231;28;20016;-71
2021/03/08 11:35:34;;;;;;;54.90;26.30;;;5.40;99.90;;;;;;5092050;28;20016;-70
2021/03/08 11:38:10;;;;;;;55.40;27.00;;;5.50;99.90;;;;;;5109649;28;20028;-73
2021/03/08 11:40:45;;;;;;;52.58;25.95;;;5.70;99.90;;;;;;5108299;28;20082;-71
2021/03/08 11:43:14;;;;;;;55.88;26.00;;;5.60;99.90;;;;;;5107608;28;20472;-70
2021/03/08 11:45:41;;;;;;;55.83;26.13;;;5.70;99.90;;;;;;5098256;28;20639;-70
2021/03/08 11:48:08;;;;;;;55.33;24.55;;;5.70;99.90;;;;;;5104491;28;20032;-70
2021/03/08 11:50:34;;;;;;;56.55;24.52;;;5.90;99.90;;;;;;5108814;28;20016;-71
2021/03/08 11:53:00;;;;;;;53.85;25.65;;;5.80;99.90;;;;;;5099393;28;20059;-70
2021/03/08 11:55:26;;;;;;;63.47;26.63;;;5.90;99.90;;;;;;5090316;28;20103;-69
2021/03/08 11:57:52;;;;;;;50.28;25.42;;;6.10;99.90;;;;;;5091567;28;20156;-70
2021/03/08 12:00:20;;;;;;;55.90;24.98;;;6.20;99.90;;;;;;5088774;28;20484;-69
2021/03/08 12:02:47;;;;;;;51.30;24.65;;;6.30;99.90;;;;;;5094930;28;20023;-68
2021/03/08 12:05:13;;;;;;;53.63;25.00;;;6.40;99.90;;;;;;5110383;28;20043;-69
2021/03/08 12:07:39;;;;;;;50.53;24.90;;;6.20;99.90;;;;;;5108608;28;20032;-69
2021/03/08 12:10:07;;;;;;;51.47;24.88;;;6.20;99.90;;;;;;5110311;28;20107;-69
2021/03/08 12:12:33;;;;;;;46.85;23.75;;;6.20;99.90;;;;;;5106805;28;20485;-68
2021/03/08 12:14:58;;;;;;;54.92;26.02;;;6.20;99.90;;;;;;5090292;28;20028;-68
2021/03/08 12:17:24;;;;;;;60.08;25.25;;;6.20;99.90;;;;;;5090411;28;20468;-68
2021/03/08 12:19:50;;;;;;;55.22;25.85;;;6.30;99.90;;;;;;5089715;28;20446;-68
2021/03/08 12:22:15;;;;;;;52.83;25.73;;;6.30;99.90;;;;;;5089765;28;20029;-68
2021/03/08 12:24:41;;;;;;;58.13;26.88;;;6.30;99.90;;;;;;5108954;28;20142;-68
2021/03/08 12:27:07;;;;;;;55.92;26.08;;;6.20;99.90;;;;;;5092329;28;20409;-68
2021/03/08 12:29:33;;;;;;;67.60;27.77;;;6.30;99.90;;;;;;5090461;28;20031;-68
2021/03/08 12:31:59;;;;;;;62.25;28.85;;;6.40;99.90;;;;;;5091214;28;20028;-68
2021/03/08 12:34:24;;;;;;;65.10;28.77;;;6.30;99.90;;;;;;5088990;28;20481;-67
2021/03/08 12:36:50;;;;;;;60.97;28.77;;;6.20;99.90;;;;;;5099881;28;20032;-67
2021/03/08 12:39:15;;;;;;;63.17;29.52;;;6.20;99.90;;;;;;5097229;28;20385;-68
2021/03/08 12:41:41;;;;;;;62.60;29.83;;;6.10;99.90;;;;;;5094675;28;20108;-68
2021/03/08 12:44:06;;;;;;;71.72;29.65;;;6.00;99.90;;;;;;5095780;28;20025;-68
2021/03/08 12:46:32;;;;;;;71.22;32.05;;;6.00;99.90;;;;;;5087110;28;20024;-69
2021/03/08 12:48:58;;;;;;;92.25;36.20;;;6.00;99.90;;;;;;5075575;28;20028;-68
2021/03/08 12:51:24;;;;;;;79.93;33.70;;;6.00;99.90;;;;;;5075031;28;20070;-68
2021/03/08 12:53:49;;;;;;;78.72;34.83;;;5.90;99.90;;;;;;5085251;28;20104;-68
2021/03/08 12:56:15;;;;;;;76.75;33.78;;;5.90;99.90;;;;;;5057138;28;20422;-68
2021/03/08 12:58:41;;;;;;;84.28;33.95;;;5.70;99.90;;;;;;5079707;28;20081;-64
2021/03/08 13:01:07;;;;;;;89.88;38.00;;;5.70;99.90;;;;;;5075368;28;20082;-66
2021/03/08 13:03:33;;;;;;;93.68;38.55;;;5.70;99.90;;;;;;5081721;28;20074;-66
2021/03/08 13:05:59;;;;;;;89.97;37.05;;;5.70;99.90;;;;;;5094206;28;20032;-67
2021/03/08 13:08:24;;;;;;;82.93;36.58;;;5.70;99.90;;;;;;5069273;28;20021;-65
2021/03/08 13:10:50;;;;;;;88.40;37.50;;;5.80;99.90;;;;;;5075827;28;20031;-69